KEWR/EWR METAR and TAF weather

Enter ICAO airport designator
Station Type Date Time Source
KEWR METAR 2019/08/19 07:51 UTC NOAA

KEWR 190751Z 31003KT 10SM BKN012 BKN018 BKN200 OVC250 24/19 A2997 RMK AO2 SLP147 T02390194


Station Type Date Time Source
KEWR Decoded METAR 2019/08/19 07:51 UTC NOAA

Station name not available
Aug 19, 2019 - 03:51 AM EDT / 2019.08.19 0751 UTC
Wind: from the NW (310 degrees) at 3 MPH (3 KT):0
Visibility: 10 mile(s):0
Sky conditions: overcast
Temperature: 75.0 F (23.9 C)
Dew Point: 66.9 F (19.4 C)
Relative Humidity: 75%
Pressure (altimeter): 29.97 in. Hg (1014 hPa)
ob: KEWR 190751Z 31003KT 10SM BKN012 BKN018 BKN200 OVC250 24/19 A2997 RMK AO2 SLP147 T02390194
cycle: 8

Station Type Date Time Source
KEWR TAF 2019/08/19 06:30 UTC NOAA

TAF KEWR 190527Z 1906/2012 21004KT P6SM SCT015 SCT030
FM191300 24005KT P6SM SCT040 BKN250
FM191800 18009KT P6SM SCT040 SCT250
FM192000 17011KT P6SM SCT040 SCT250 PROB30 1920/1924 TSRA BKN040CB
FM200200 24006KT P6SM FEW020 SCT040

Example: see airport list